createdAt,value
2023-01-29T00:00:23.970Z,102177.41
2023-01-29T00:02:50.549Z,102166.53
2023-01-29T00:05:27.625Z,102171.84
2023-01-29T00:07:56.193Z,102175.09
2023-01-29T00:10:24.230Z,102179.53
2023-01-29T00:12:51.679Z,102183.81
2023-01-29T00:15:18.629Z,102183.81
2023-01-29T00:17:45.167Z,102186.47
2023-01-29T00:20:12.028Z,102187.34
2023-01-29T00:22:38.515Z,102184.28
2023-01-29T00:25:05.468Z,102181.06
2023-01-29T00:27:31.965Z,102165.19
2023-01-29T00:30:12.661Z,102166.06
2023-01-29T00:32:42.557Z,102165.19
2023-01-29T00:35:09.657Z,102159.25
2023-01-29T00:37:36.147Z,102150.56
2023-01-29T00:40:03.187Z,102138.03
2023-01-29T00:42:48.381Z,102129.78
2023-01-29T00:45:15.158Z,102135.16
2023-01-29T00:47:41.680Z,102136.72
2023-01-29T00:50:10.992Z,102131.72
2023-01-29T00:52:37.907Z,102119.78
2023-01-29T00:55:06.192Z,102122.28
2023-01-29T00:57:34.427Z,102123.34
2023-01-29T01:00:01.748Z,102124.78
2023-01-29T01:02:46.901Z,102124.66
2023-01-29T01:05:19.523Z,102126.41
2023-01-29T01:07:51.762Z,102120.34
2023-01-29T01:10:30.833Z,102121.22
2023-01-29T01:13:07.161Z,102119.16
2023-01-29T01:15:39.876Z,102127.38
2023-01-29T01:18:06.680Z,102142.38
2023-01-29T01:20:34.785Z,102133.13
2023-01-29T01:23:01.341Z,102142.22
2023-01-29T01:25:27.947Z,102149.88
2023-01-29T01:27:56.221Z,102145.06
2023-01-29T01:30:23.691Z,102152.00
2023-01-29T01:32:50.711Z,102151.13
2023-01-29T01:35:17.357Z,102144.31
2023-01-29T01:37:43.881Z,102148.75
2023-01-29T01:40:20.326Z,102150.38
2023-01-29T01:42:52.324Z,102147.00
2023-01-29T01:45:33.144Z,102150.38
2023-01-29T01:48:17.303Z,102148.63
2023-01-29T01:50:52.190Z,102158.78
2023-01-29T01:53:26.651Z,102149.09
2023-01-29T01:55:59.020Z,102154.25
2023-01-29T01:58:47.803Z,102138.91
2023-01-29T02:01:14.531Z,102140.38
2023-01-29T02:04:12.501Z,102131.41
2023-01-29T02:06:59.282Z,102132.16
2023-01-29T02:09:31.439Z,102147.47
2023-01-29T02:11:58.025Z,102149.69
2023-01-29T02:14:25.411Z,102142.47
2023-01-29T02:16:52.064Z,102143.94
2023-01-29T02:19:35.559Z,102143.03
2023-01-29T02:22:25.697Z,102129.66
2023-01-29T02:25:09.672Z,102121.81
2023-01-29T02:27:48.397Z,102120.34
2023-01-29T02:30:36.188Z,102113.59
2023-01-29T02:33:22.143Z,102121.22
2023-01-29T02:35:56.628Z,102115.03
2023-01-29T02:38:36.261Z,102125.03
2023-01-29T02:41:20.837Z,102126.66
2023-01-29T02:44:13.159Z,102120.03
2023-01-29T02:46:54.904Z,102116.47
2023-01-29T02:49:48.138Z,102115.03
2023-01-29T02:52:19.174Z,102113.41
2023-01-29T02:55:04.744Z,102109.16
2023-01-29T02:57:39.215Z,102107.69
2023-01-29T03:00:19.493Z,102108.56
2023-01-29T03:03:03.632Z,102100.91
2023-01-29T03:05:51.037Z,102091.78
2023-01-29T03:08:23.651Z,102081.75
2023-01-29T03:11:03.189Z,102080.16
2023-01-29T03:14:13.302Z,102077.22
2023-01-29T03:16:53.829Z,102070.28
2023-01-29T03:19:29.035Z,102059.56
2023-01-29T03:22:01.562Z,102051.16
2023-01-29T03:24:53.128Z,102064.31
2023-01-29T03:27:41.539Z,102055.06
2023-01-29T03:30:31.343Z,102057.56
2023-01-29T03:33:02.451Z,102053.44
2023-01-29T03:35:36.422Z,102056.81
2023-01-29T03:38:05.459Z,102054.13
2023-01-29T03:40:40.158Z,102039.13
2023-01-29T03:43:13.323Z,102034.47
2023-01-29T03:45:55.355Z,102034.28
2023-01-29T03:48:39.979Z,102028.41
2023-01-29T03:51:13.810Z,102034.63
2023-01-29T03:53:58.581Z,102030.34
2023-01-29T03:56:51.703Z,102019.28
2023-01-29T03:59:25.668Z,102032.84
2023-01-29T04:01:57.239Z,102035.16
2023-01-29T04:04:28.265Z,102033.72
2023-01-29T04:07:00.579Z,102031.06
2023-01-29T04:09:43.429Z,102026.94
2023-01-29T04:12:12.106Z,102016.06
2023-01-29T04:14:39.387Z,102019.44
2023-01-29T04:17:15.787Z,102018.56
2023-01-29T04:19:42.873Z,102012.50
2023-01-29T04:22:19.683Z,102019.44
2023-01-29T04:24:48.403Z,102007.63
2023-01-29T04:27:21.155Z,102012.50
2023-01-29T04:29:56.381Z,102000.56
2023-01-29T04:32:54.758Z,101990.97
2023-01-29T04:35:53.617Z,101990.38
2023-01-29T04:38:51.883Z,101986.84
2023-01-29T04:41:33.531Z,101987.72
2023-01-29T04:44:50.723Z,101992.88
2023-01-29T04:47:50.473Z,101996.09
2023-01-29T04:50:28.649Z,101989.34
2023-01-29T04:53:07.185Z,101998.59
2023-01-29T04:55:45.272Z,102005.97
2023-01-29T04:58:21.573Z,102021.88
2023-01-29T05:00:53.462Z,102016.69
2023-01-29T05:03:24.416Z,102024.19
2023-01-29T05:05:51.291Z,102015.81
2023-01-29T05:08:21.482Z,102024.94
2023-01-29T05:10:49.796Z,102036.72
2023-01-29T05:13:18.900Z,102021.69
2023-01-29T05:15:52.418Z,102021.56
2023-01-29T05:18:19.332Z,102015.63
2023-01-29T05:20:47.788Z,102011.38
2023-01-29T05:23:18.956Z,101997.25
2023-01-29T05:25:46.409Z,102001.78
2023-01-29T05:28:18.985Z,102001.78
2023-01-29T05:30:48.078Z,101995.16
2023-01-29T05:33:29.018Z,101981.75
2023-01-29T05:35:58.160Z,101970.69
2023-01-29T05:38:24.783Z,101978.03
2023-01-29T05:40:51.318Z,101976.84
2023-01-29T05:43:23.115Z,101991.53
2023-01-29T05:45:58.715Z,101989.75
2023-01-29T05:48:29.302Z,101976.38
2023-01-29T05:51:03.279Z,101972.81
2023-01-29T05:53:31.216Z,101981.94
2023-01-29T05:56:01.376Z,101974.84
2023-01-29T05:58:28.009Z,101975.16
2023-01-29T06:00:54.549Z,101971.59
2023-01-29T06:03:21.013Z,101976.59
2023-01-29T06:05:47.491Z,101979.84
2023-01-29T06:08:13.984Z,102000.16
2023-01-29T06:10:40.545Z,101991.47
2023-01-29T06:13:07.881Z,102004.09
2023-01-29T06:15:34.378Z,102012.66
2023-01-29T06:18:00.851Z,102018.56
2023-01-29T06:20:27.391Z,102011.22
2023-01-29T06:22:53.902Z,101996.22
2023-01-29T06:25:20.388Z,101985.50
2023-01-29T06:27:50.633Z,101986.53
2023-01-29T06:30:17.665Z,101984.56
2023-01-29T06:32:44.320Z,101993.31
2023-01-29T06:35:10.983Z,101974.16
2023-01-29T06:37:37.723Z,101964.72
2023-01-29T06:40:04.712Z,101966.34
2023-01-29T06:42:31.503Z,101958.09
2023-01-29T06:44:58.013Z,101960.59
2023-01-29T06:47:24.988Z,101967.25
2023-01-29T06:49:52.302Z,101968.13
2023-01-29T06:52:19.018Z,101958.09
2023-01-29T06:54:45.999Z,101958.69
2023-01-29T06:57:12.526Z,101944.72
2023-01-29T06:59:39.011Z,101938.09
2023-01-29T07:02:05.552Z,101922.78
2023-01-29T07:04:32.149Z,101912.94
2023-01-29T07:07:01.710Z,101924.72
2023-01-29T07:09:28.198Z,101921.16
2023-01-29T07:11:54.840Z,101914.22
2023-01-29T07:14:21.302Z,101912.78
2023-01-29T07:16:47.809Z,101900.84
2023-01-29T07:19:14.572Z,101912.47
2023-01-29T07:21:41.043Z,101911.25
2023-01-29T07:24:07.874Z,101919.81
2023-01-29T07:26:34.361Z,101911.25
2023-01-29T07:29:00.864Z,101908.16
2023-01-29T07:31:27.533Z,101919.97
2023-01-29T07:33:54.044Z,101918.00
2023-01-29T07:36:20.585Z,101921.56
2023-01-29T07:38:51.016Z,101934.06
2023-01-29T07:41:17.607Z,101936.44
2023-01-29T07:43:44.135Z,101935.13
2023-01-29T07:46:10.722Z,101933.94
2023-01-29T07:48:37.290Z,101931.00
2023-01-29T07:51:05.173Z,101924.81
2023-01-29T07:53:33.508Z,101928.94
2023-01-29T07:56:00.447Z,101919.22
2023-01-29T07:58:26.979Z,101917.03
2023-01-29T08:00:53.511Z,101918.25
2023-01-29T08:03:20.263Z,101908.25
2023-01-29T08:05:47.433Z,101914.28
2023-01-29T08:08:14.374Z,101916.06
2023-01-29T08:10:41.575Z,101911.06
2023-01-29T08:13:08.207Z,101903.88
2023-01-29T08:15:37.941Z,101902.97
2023-01-29T08:18:05.995Z,101899.94
2023-01-29T08:20:32.684Z,101896.28
2023-01-29T08:23:05.877Z,101883.00
2023-01-29T08:25:32.880Z,101900.53
2023-01-29T08:28:00.490Z,101889.06
2023-01-29T08:30:29.844Z,101883.66
2023-01-29T08:32:56.628Z,101890.59
2023-01-29T08:35:23.784Z,101881.63
2023-01-29T08:38:02.016Z,101898.16
2023-01-29T08:40:31.617Z,101890.81
2023-01-29T08:43:02.054Z,101891.28
2023-01-29T08:45:30.447Z,101888.19
2023-01-29T08:47:57.346Z,101884.22
2023-01-29T08:50:24.150Z,101893.66
2023-01-29T08:52:50.770Z,101885.28
2023-01-29T08:55:17.718Z,101875.56
2023-01-29T08:57:44.475Z,101875.88
2023-01-29T09:00:11.787Z,101881.19
2023-01-29T09:02:38.332Z,101885.63
2023-01-29T09:05:05.554Z,101878.84
2023-01-29T09:07:32.934Z,101880.19
2023-01-29T09:09:59.595Z,101872.09
2023-01-29T09:12:26.258Z,101879.03
2023-01-29T09:14:52.884Z,101874.19
2023-01-29T09:17:19.612Z,101885.25
2023-01-29T09:19:46.357Z,101884.66
2023-01-29T09:22:12.939Z,101877.44
2023-01-29T09:24:39.537Z,101883.81
2023-01-29T09:27:06.193Z,101894.13
2023-01-29T09:29:35.680Z,101885.88
2023-01-29T09:32:04.351Z,101873.50
2023-01-29T09:34:30.867Z,101869.38
2023-01-29T09:36:57.394Z,101882.34
2023-01-29T09:39:23.886Z,101871.63
2023-01-29T09:42:08.157Z,101874.41
2023-01-29T09:44:47.012Z,101867.06
2023-01-29T09:47:16.935Z,101867.50
2023-01-29T09:49:55.301Z,101862.66
2023-01-29T09:52:32.543Z,101859.25
2023-01-29T09:55:23.049Z,101858.69
2023-01-29T09:57:53.260Z,101858.69
2023-01-29T10:00:57.681Z,101853.22
2023-01-29T10:03:34.912Z,101844.09
2023-01-29T10:06:23.316Z,101849.41
2023-01-29T10:09:08.601Z,101833.50
2023-01-29T10:12:02.565Z,101824.06
2023-01-29T10:14:59.559Z,101820.22
2023-01-29T10:17:35.374Z,101821.09
2023-01-29T10:20:26.317Z,101810.34
2023-01-29T10:23:02.307Z,101804.28
2023-01-29T10:25:28.989Z,101800.47
2023-01-29T10:27:59.021Z,101799.88
2023-01-29T10:30:35.755Z,101795.75
2023-01-29T10:33:06.117Z,101793.25
2023-01-29T10:35:42.089Z,101786.47
2023-01-29T10:38:34.187Z,101793.25
2023-01-29T10:41:21.219Z,101793.41
2023-01-29T10:44:15.254Z,101786.91
2023-01-29T10:47:14.241Z,101783.94
2023-01-29T10:49:40.720Z,101777.31
2023-01-29T10:52:22.821Z,101770.25
2023-01-29T10:55:03.341Z,101769.38
2023-01-29T10:57:51.394Z,101751.22
2023-01-29T11:00:26.255Z,101744.88
2023-01-29T11:02:53.165Z,101745.03
2023-01-29T11:05:31.945Z,101745.03
2023-01-29T11:08:12.749Z,101742.66
2023-01-29T11:10:47.886Z,101735.00
2023-01-29T11:13:16.237Z,101730.25
2023-01-29T11:15:43.505Z,101731.16
2023-01-29T11:18:15.526Z,101738.69
2023-01-29T11:20:44.424Z,101739.56
2023-01-29T11:23:30.057Z,101744.44
2023-01-29T11:25:58.790Z,101734.13
2023-01-29T11:28:38.932Z,101740.72
2023-01-29T11:31:29.333Z,101732.63
2023-01-29T11:34:22.234Z,101722.72
2023-01-29T11:37:00.822Z,101727.16
2023-01-29T11:39:28.964Z,101713.88
2023-01-29T11:42:01.196Z,101712.09
2023-01-29T11:44:32.819Z,101715.81
2023-01-29T11:47:26.180Z,101702.06
2023-01-29T11:49:55.315Z,101691.03
2023-01-29T11:52:25.526Z,101691.59
2023-01-29T11:54:59.944Z,101685.72
2023-01-29T11:57:35.610Z,101672.13
2023-01-29T12:00:24.916Z,101673.56
2023-01-29T12:03:01.368Z,101665.44
2023-01-29T12:05:28.209Z,101664.25
2023-01-29T12:07:59.912Z,101664.25
2023-01-29T12:10:38.608Z,101658.50
2023-01-29T12:13:06.702Z,101665.44
2023-01-29T12:15:33.509Z,101644.78
2023-01-29T12:18:06.269Z,101646.84
2023-01-29T12:20:45.225Z,101648.63
2023-01-29T12:23:30.868Z,101651.41
2023-01-29T12:26:27.535Z,101633.84
2023-01-29T12:29:19.098Z,101649.91
2023-01-29T12:32:06.819Z,101628.22
2023-01-29T12:34:43.478Z,101626.88
2023-01-29T12:37:30.400Z,101621.72
2023-01-29T12:39:56.923Z,101609.78
2023-01-29T12:42:24.480Z,101610.66
2023-01-29T12:45:00.364Z,101611.69
2023-01-29T12:47:30.767Z,101610.50
2023-01-29T12:50:03.105Z,101604.63
2023-01-29T12:52:48.126Z,101600.34
2023-01-29T12:55:26.822Z,101595.19
2023-01-29T12:57:58.528Z,101592.06
2023-01-29T13:00:40.209Z,101590.16
2023-01-29T13:03:19.480Z,101582.38
2023-01-29T13:05:49.109Z,101581.88
2023-01-29T13:08:34.232Z,101566.56
2023-01-29T13:11:06.544Z,101558.16
2023-01-29T13:13:42.753Z,101554.44
2023-01-29T13:16:13.777Z,101546.91
2023-01-29T13:18:42.297Z,101548.09
2023-01-29T13:21:15.344Z,101551.00
2023-01-29T13:23:46.931Z,101538.56
2023-01-29T13:26:18.024Z,101542.13
2023-01-29T13:28:45.585Z,101536.84
2023-01-29T13:31:25.525Z,101538.72
2023-01-29T13:34:04.623Z,101537.09
2023-01-29T13:36:32.084Z,101536.97
2023-01-29T13:39:03.990Z,101540.22
2023-01-29T13:41:35.987Z,101529.16
2023-01-29T13:44:05.797Z,101528.44
2023-01-29T13:46:32.742Z,101522.25
2023-01-29T13:49:04.732Z,101520.75
2023-01-29T13:51:36.396Z,101522.53
2023-01-29T13:54:08.771Z,101511.75
2023-01-29T13:56:35.338Z,101514.41
2023-01-29T13:59:05.262Z,101510.00
2023-01-29T14:01:47.084Z,101504.97
2023-01-29T14:04:21.535Z,101501.56
2023-01-29T14:06:51.530Z,101491.25
2023-01-29T14:09:37.168Z,101497.03
2023-01-29T14:12:24.896Z,101494.38
2023-01-29T14:15:04.184Z,101491.00
2023-01-29T14:17:31.028Z,101483.78
2023-01-29T14:20:03.828Z,101488.19
2023-01-29T14:22:33.814Z,101476.53
2023-01-29T14:25:04.719Z,101472.88
2023-01-29T14:27:32.377Z,101476.53
2023-01-29T14:30:02.471Z,101469.00
2023-01-29T14:32:29.871Z,101459.94
2023-01-29T14:35:09.892Z,101467.31
2023-01-29T14:37:41.472Z,101461.72
2023-01-29T14:40:19.828Z,101465.59
2023-01-29T14:43:06.590Z,101457.19
2023-01-29T14:45:35.239Z,101448.66
2023-01-29T14:48:11.023Z,101453.53
2023-01-29T14:50:41.985Z,101450.75
2023-01-29T14:53:27.505Z,101451.47
2023-01-29T14:56:12.080Z,101442.94
2023-01-29T14:58:43.508Z,101441.03
2023-01-29T15:01:25.185Z,101437.34
2023-01-29T15:04:20.946Z,101438.25
2023-01-29T15:06:53.045Z,101440.00
2023-01-29T15:09:39.054Z,101433.97
2023-01-29T15:12:15.431Z,101433.97
2023-01-29T15:14:52.019Z,101429.84
2023-01-29T15:17:28.396Z,101423.94
2023-01-29T15:19:57.270Z,101423.22
2023-01-29T15:22:26.066Z,101425.72
2023-01-29T15:25:12.952Z,101408.19
2023-01-29T15:27:44.465Z,101408.66
2023-01-29T15:30:17.699Z,101404.34
2023-01-29T15:32:44.989Z,101402.00
2023-01-29T15:35:24.429Z,101402.00
2023-01-29T15:38:06.068Z,101396.84
2023-01-29T15:40:33.105Z,101399.94
2023-01-29T15:43:00.089Z,101394.06
2023-01-29T15:45:31.844Z,101388.19
2023-01-29T15:48:06.975Z,101382.88
2023-01-29T15:50:39.205Z,101375.22
2023-01-29T15:53:09.515Z,101374.22
2023-01-29T15:55:36.431Z,101370.81
2023-01-29T15:58:03.675Z,101358.00
2023-01-29T16:00:30.617Z,101359.78
2023-01-29T16:03:00.526Z,101360.81
2023-01-29T16:05:32.833Z,101348.13
2023-01-29T16:08:00.684Z,101338.72
2023-01-29T16:10:30.360Z,101349.47
2023-01-29T16:12:58.079Z,101339.59
2023-01-29T16:15:32.855Z,101341.34
2023-01-29T16:18:01.199Z,101331.31
2023-01-29T16:20:35.018Z,101334.44
2023-01-29T16:23:02.372Z,101341.22
2023-01-29T16:25:30.641Z,101333.56
2023-01-29T16:27:58.516Z,101337.69
2023-01-29T16:30:27.795Z,101332.06
2023-01-29T16:33:02.618Z,101331.91
2023-01-29T16:35:29.401Z,101317.63
2023-01-29T16:38:03.227Z,101317.03
2023-01-29T16:40:33.389Z,101325.41
2023-01-29T16:43:15.208Z,101332.22
2023-01-29T16:45:41.765Z,101325.31
2023-01-29T16:48:32.017Z,101316.63
2023-01-29T16:51:12.528Z,101317.22
2023-01-29T16:53:39.429Z,101319.59
2023-01-29T16:56:08.163Z,101314.94
2023-01-29T16:58:35.448Z,101317.28
2023-01-29T17:01:07.253Z,101322.28
2023-01-29T17:03:35.583Z,101313.75
2023-01-29T17:06:13.555Z,101305.97
2023-01-29T17:08:43.594Z,101305.81
2023-01-29T17:11:14.012Z,101303.94
2023-01-29T17:13:44.407Z,101312.31
2023-01-29T17:16:20.909Z,101297.63
2023-01-29T17:18:47.630Z,101287.31
2023-01-29T17:21:14.165Z,101280.56
2023-01-29T17:23:40.757Z,101264.50
2023-01-29T17:26:30.946Z,101264.38
2023-01-29T17:29:00.721Z,101264.72
2023-01-29T17:31:27.891Z,101266.47
2023-01-29T17:33:54.534Z,101264.81
2023-01-29T17:36:21.561Z,101259.69
2023-01-29T17:38:48.300Z,101255.69
2023-01-29T17:41:31.451Z,101246.28
2023-01-29T17:43:58.016Z,101248.06
2023-01-29T17:46:24.533Z,101239.53
2023-01-29T17:48:51.066Z,101230.13
2023-01-29T17:51:18.253Z,101238.91
2023-01-29T17:53:46.985Z,101241.28
2023-01-29T17:56:30.551Z,101236.00
2023-01-29T17:58:57.136Z,101227.00
2023-01-29T18:01:23.866Z,101223.47
2023-01-29T18:03:50.473Z,101225.09
2023-01-29T18:06:29.707Z,101217.59
2023-01-29T18:08:56.675Z,101192.16
2023-01-29T18:11:23.980Z,101204.78
2023-01-29T18:13:50.484Z,101208.66
2023-01-29T18:16:18.468Z,101197.63
2023-01-29T18:18:45.053Z,101203.84
2023-01-29T18:21:11.595Z,101191.31
2023-01-29T18:23:38.204Z,101183.06
2023-01-29T18:26:06.000Z,101189.69
2023-01-29T18:28:33.104Z,101172.63
2023-01-29T18:31:05.330Z,101168.50
2023-01-29T18:33:34.143Z,101160.25
2023-01-29T18:36:00.855Z,101149.34
2023-01-29T18:38:27.712Z,101139.22
2023-01-29T18:41:01.919Z,101134.47
2023-01-29T18:43:28.598Z,101131.81
2023-01-29T18:45:59.888Z,101127.56
2023-01-29T18:48:26.679Z,101127.41
2023-01-29T18:50:53.420Z,101122.56
2023-01-29T18:53:20.334Z,101107.13
2023-01-29T18:56:04.084Z,101102.13
2023-01-29T18:58:35.638Z,101093.00
2023-01-29T19:01:07.061Z,101094.75
2023-01-29T19:03:33.707Z,101091.34
2023-01-29T19:06:02.079Z,101081.34
2023-01-29T19:08:29.508Z,101080.63
2023-01-29T19:10:56.503Z,101070.00
2023-01-29T19:13:23.084Z,101069.59
2023-01-29T19:15:49.573Z,101061.59
2023-01-29T19:18:16.082Z,101062.63
2023-01-29T19:20:42.600Z,101051.84
2023-01-29T19:23:09.507Z,101032.69
2023-01-29T19:25:38.645Z,101029.47
2023-01-29T19:28:07.229Z,101022.81
2023-01-29T19:30:33.780Z,101038.59
2023-01-29T19:33:00.562Z,101032.59
2023-01-29T19:35:27.296Z,101023.59
2023-01-29T19:37:54.392Z,101011.06
2023-01-29T19:40:21.042Z,101004.53
2023-01-29T19:42:48.106Z,100993.66
2023-01-29T19:45:15.067Z,101001.16
2023-01-29T19:47:43.227Z,101003.34
2023-01-29T19:50:10.955Z,100995.81
2023-01-29T19:52:53.011Z,100988.16
2023-01-29T19:55:21.005Z,100992.44
2023-01-29T19:57:47.877Z,100999.97
2023-01-29T20:00:17.311Z,100992.69
2023-01-29T20:02:43.838Z,100979.94
2023-01-29T20:05:12.463Z,100979.16
2023-01-29T20:07:41.086Z,100974.91
2023-01-29T20:10:11.286Z,100986.81
2023-01-29T20:12:38.431Z,100978.28
2023-01-29T20:15:05.328Z,100975.78
2023-01-29T20:17:31.857Z,100972.66
2023-01-29T20:19:58.372Z,100974.53
2023-01-29T20:22:26.378Z,100981.03
2023-01-29T20:24:53.129Z,100979.41
2023-01-29T20:27:19.990Z,100977.81
2023-01-29T20:29:46.603Z,100959.53
2023-01-29T20:32:14.478Z,100953.03
2023-01-29T20:34:41.355Z,100948.00
2023-01-29T20:37:07.889Z,100950.66
2023-01-29T20:39:34.414Z,100941.38
2023-01-29T20:42:00.891Z,100937.22
2023-01-29T20:44:27.540Z,100934.00
2023-01-29T20:46:54.153Z,100922.22
2023-01-29T20:49:21.738Z,100929.72
2023-01-29T20:51:48.262Z,100923.97
2023-01-29T20:54:14.938Z,100903.19
2023-01-29T20:56:42.461Z,100900.06
2023-01-29T20:59:10.137Z,100890.94
2023-01-29T21:01:36.743Z,100898.47
2023-01-29T21:04:03.473Z,100883.53
2023-01-29T21:06:30.636Z,100894.56
2023-01-29T21:08:57.289Z,100883.81
2023-01-29T21:11:23.866Z,100880.44
2023-01-29T21:13:53.101Z,100883.44
2023-01-29T21:16:19.703Z,100879.44
2023-01-29T21:18:46.206Z,100874.19
2023-01-29T21:21:12.709Z,100860.88
2023-01-29T21:23:39.213Z,100866.16
2023-01-29T21:26:06.878Z,100860.41
2023-01-29T21:28:33.826Z,100871.19
2023-01-29T21:31:10.042Z,100865.41
2023-01-29T21:33:37.043Z,100860.41
2023-01-29T21:36:04.060Z,100847.25
2023-01-29T21:38:30.569Z,100844.63
2023-01-29T21:41:01.536Z,100847.16
2023-01-29T21:43:28.059Z,100862.53
2023-01-29T21:45:59.223Z,100870.16
2023-01-29T21:48:26.659Z,100857.78
2023-01-29T21:50:53.312Z,100855.13
2023-01-29T21:53:20.059Z,100851.75
2023-01-29T21:55:47.034Z,100848.63
2023-01-29T21:58:14.669Z,100836.09
2023-01-29T22:00:41.484Z,100837.75
2023-01-29T22:03:08.048Z,100831.00
2023-01-29T22:05:34.720Z,100837.75
2023-01-29T22:08:01.376Z,100834.38
2023-01-29T22:10:28.847Z,100834.38
2023-01-29T22:12:55.543Z,100821.94
2023-01-29T22:15:23.903Z,100828.59
2023-01-29T22:17:50.883Z,100827.84
2023-01-29T22:20:17.896Z,100832.97
2023-01-29T22:22:44.655Z,100833.09
2023-01-29T22:25:11.557Z,100800.94
2023-01-29T22:27:38.069Z,100807.19
2023-01-29T22:30:05.584Z,100806.41
2023-01-29T22:32:32.758Z,100784.00
2023-01-29T22:34:59.298Z,100753.06
2023-01-29T22:37:25.793Z,100755.66
2023-01-29T22:39:52.352Z,100743.91
2023-01-29T22:42:20.375Z,100748.78
2023-01-29T22:44:48.052Z,100763.19
2023-01-29T22:47:15.030Z,100746.28
2023-01-29T22:49:41.558Z,100743.69
2023-01-29T22:52:11.026Z,100743.91
2023-01-29T22:54:39.843Z,100747.19
2023-01-29T22:57:09.911Z,100744.78
2023-01-29T22:59:36.874Z,100737.25
2023-01-29T23:02:03.858Z,100719.72
2023-01-29T23:04:30.617Z,100707.97
2023-01-29T23:06:58.257Z,100708.97
2023-01-29T23:09:25.190Z,100706.56
2023-01-29T23:11:52.033Z,100683.91
2023-01-29T23:14:18.900Z,100675.41
2023-01-29T23:16:45.638Z,100671.47
2023-01-29T23:19:12.371Z,100669.97
2023-01-29T23:21:39.755Z,100659.09
2023-01-29T23:24:07.922Z,100650.81
2023-01-29T23:26:53.299Z,100648.44
2023-01-29T23:29:20.458Z,100614.97
2023-01-29T23:31:47.457Z,100621.84
2023-01-29T23:34:15.102Z,100625.22
2023-01-29T23:36:42.509Z,100591.28
2023-01-29T23:39:09.548Z,100585.63
2023-01-29T23:41:36.313Z,100576.47
2023-01-29T23:44:03.677Z,100575.09
2023-01-29T23:46:31.063Z,100582.47
2023-01-29T23:48:57.815Z,100583.34
2023-01-29T23:51:24.499Z,100569.06
2023-01-29T23:53:51.279Z,100565.44
2023-01-29T23:56:18.094Z,100576.94
2023-01-29T23:58:45.011Z,100584.59
